sensor_id;sensor_type;location;lat;lon;timestamp;temperature;humidity
3818;DHT22;1924;48.078;11.516;2023-05-20T04:00:33;12.20;99.90
3818;DHT22;1924;48.078;11.516;2023-05-20T04:03:00;12.10;99.90
3818;DHT22;1924;48.078;11.516;2023-05-20T04:05:27;12.10;99.90
3818;DHT22;1924;48.078;11.516;2023-05-20T04:07:54;12.20;99.90
3818;DHT22;1924;48.078;11.516;2023-05-20T04:10:21;12.20;99.90
3818;DHT22;1924;48.078;11.516;2023-05-20T04:12:48;12.20;99.90
3818;DHT22;1924;48.078;11.516;2023-05-20T04:15:15;12.20;99.90
3818;DHT22;1924;48.078;11.516;2023-05-20T04:17:43;12.10;99.90
3818;DHT22;1924;48.078;11.516;2023-05-20T04:20:13;12.00;99.90
3818;DHT22;1924;48.078;11.516;2023-05-20T04:22:39;12.00;99.90
3818;DHT22;1924;48.078;11.516;2023-05-20T04:25:06;12.10;99.90
3818;DHT22;1924;48.078;11.516;2023-05-20T04:27:34;12.10;99.90
3818;DHT22;1924;48.078;11.516;2023-05-20T04:30:02;12.00;99.90
3818;DHT22;1924;48.078;11.516;2023-05-20T04:32:29;12.00;99.90
3818;DHT22;1924;48.078;11.516;2023-05-20T04:34:57;12.00;99.90
3818;DHT22;1924;48.078;11.516;2023-05-20T04:37:26;12.00;99.90
3818;DHT22;1924;48.078;11.516;2023-05-20T04:39:53;12.00;99.90
3818;DHT22;1924;48.078;11.516;2023-05-20T04:42:19;12.00;99.90
3818;DHT22;1924;48.078;11.516;2023-05-20T04:44:47;11.90;99.90
3818;DHT22;1924;48.078;11.516;2023-05-20T04:47:13;12.00;99.90
3818;DHT22;1924;48.078;11.516;2023-05-20T04:49:40;11.90;99.90
3818;DHT22;1924;48.078;11.516;2023-05-20T04:52:09;11.90;99.90
3818;DHT22;1924;48.078;11.516;2023-05-20T04:54:35;12.00;99.90
3818;DHT22;1924;48.078;11.516;2023-05-20T04:57:03;12.00;99.90
3818;DHT22;1924;48.078;11.516;2023-05-20T04:59:30;12.00;99.90
3818;DHT22;1924;48.078;11.516;2023-05-20T05:01:56;12.10;99.90
3818;DHT22;1924;48.078;11.516;2023-05-20T05:04:23;12.10;99.90
3818;DHT22;1924;48.078;11.516;2023-05-20T05:06:49;12.10;99.90
3818;DHT22;1924;48.078;11.516;2023-05-20T05:09:17;12.20;99.90
3818;DHT22;1924;48.078;11.516;2023-05-20T05:11:44;12.00;99.90
3818;DHT22;1924;48.078;11.516;2023-05-20T05:14:11;12.10;99.90
3818;DHT22;1924;48.078;11.516;2023-05-20T05:16:37;12.00;99.90
3818;DHT22;1924;48.078;11.516;2023-05-20T05:19:04;12.00;99.90
3818;DHT22;1924;48.078;11.516;2023-05-20T05:21:31;12.10;99.90
3818;DHT22;1924;48.078;11.516;2023-05-20T05:23:58;12.00;99.90
3818;DHT22;1924;48.078;11.516;2023-05-20T05:26:26;12.00;99.90
3818;DHT22;1924;48.078;11.516;2023-05-20T05:28:53;12.00;99.90
3818;DHT22;1924;48.078;11.516;2023-05-20T05:31:20;12.10;99.90
3818;DHT22;1924;48.078;11.516;2023-05-20T05:33:47;12.20;99.90
3818;DHT22;1924;48.078;11.516;2023-05-20T05:36:14;12.20;99.90
3818;DHT22;1924;48.078;11.516;2023-05-20T05:38:42;12.10;99.90
3818;DHT22;1924;48.078;11.516;2023-05-20T05:41:11;12.20;99.90
3818;DHT22;1924;48.078;11.516;2023-05-20T05:43:39;12.20;99.90
3818;DHT22;1924;48.078;11.516;2023-05-20T05:46:06;12.10;99.90
3818;DHT22;1924;48.078;11.516;2023-05-20T05:48:35;12.20;99.90
3818;DHT22;1924;48.078;11.516;2023-05-20T05:51:01;12.30;99.90
3818;DHT22;1924;48.078;11.516;2023-05-20T05:53:28;12.30;99.90
3818;DHT22;1924;48.078;11.516;2023-05-20T05:55:59;12.30;99.90
3818;DHT22;1924;48.078;11.516;2023-05-20T05:58:25;12.30;99.90
3818;DHT22;1924;48.078;11.516;2023-05-20T06:00:54;12.40;99.90
3818;DHT22;1924;48.078;11.516;2023-05-20T06:03:22;12.40;99.90
3818;DHT22;1924;48.078;11.516;2023-05-20T06:05:52;12.30;99.90
3818;DHT22;1924;48.078;11.516;2023-05-20T06:08:19;12.30;99.90
3818;DHT22;1924;48.078;11.516;2023-05-20T06:10:47;12.30;99.90
3818;DHT22;1924;48.078;11.516;2023-05-20T06:13:14;12.20;99.90
3818;DHT22;1924;48.078;11.516;2023-05-20T06:15:41;12.10;99.90
3818;DHT22;1924;48.078;11.516;2023-05-20T06:18:09;12.20;99.90
3818;DHT22;1924;48.078;11.516;2023-05-20T06:20:36;12.50;99.90
3818;DHT22;1924;48.078;11.516;2023-05-20T06:23:03;12.50;99.90
3818;DHT22;1924;48.078;11.516;2023-05-20T06:25:29;12.60;99.90
3818;DHT22;1924;48.078;11.516;2023-05-20T06:27:56;12.70;99.90
3818;DHT22;1924;48.078;11.516;2023-05-20T06:30:23;12.90;99.90
3818;DHT22;1924;48.078;11.516;2023-05-20T06:32:49;13.10;99.90
3818;DHT22;1924;48.078;11.516;2023-05-20T06:35:17;13.20;99.90
3818;DHT22;1924;48.078;11.516;2023-05-20T06:37:44;13.40;99.90
3818;DHT22;1924;48.078;11.516;2023-05-20T06:40:11;13.30;99.90
3818;DHT22;1924;48.078;11.516;2023-05-20T06:42:38;13.30;99.90
3818;DHT22;1924;48.078;11.516;2023-05-20T06:45:06;13.40;99.90
3818;DHT22;1924;48.078;11.516;2023-05-20T06:47:32;13.30;99.90
3818;DHT22;1924;48.078;11.516;2023-05-20T06:49:59;13.10;99.90
3818;DHT22;1924;48.078;11.516;2023-05-20T06:52:29;13.30;99.90
3818;DHT22;1924;48.078;11.516;2023-05-20T06:54:56;13.40;99.90
3818;DHT22;1924;48.078;11.516;2023-05-20T06:57:23;13.40;99.90
3818;DHT22;1924;48.078;11.516;2023-05-20T06:59:49;13.50;99.90
3818;DHT22;1924;48.078;11.516;2023-05-20T07:02:16;13.70;99.90
3818;DHT22;1924;48.078;11.516;2023-05-20T07:04:43;13.90;99.90
3818;DHT22;1924;48.078;11.516;2023-05-20T07:07:10;13.80;99.90
3818;DHT22;1924;48.078;11.516;2023-05-20T07:09:38;13.70;99.90
3818;DHT22;1924;48.078;11.516;2023-05-20T07:12:05;13.60;99.90
3818;DHT22;1924;48.078;11.516;2023-05-20T07:14:33;13.60;99.90
3818;DHT22;1924;48.078;11.516;2023-05-20T07:16:59;13.50;99.90
3818;DHT22;1924;48.078;11.516;2023-05-20T07:19:26;13.50;99.90
3818;DHT22;1924;48.078;11.516;2023-05-20T07:21:53;13.50;99.90
3818;DHT22;1924;48.078;11.516;2023-05-20T07:24:19;13.60;99.90
3818;DHT22;1924;48.078;11.516;2023-05-20T07:26:47;13.60;99.90
3818;DHT22;1924;48.078;11.516;2023-05-20T07:29:15;13.70;99.90
3818;DHT22;1924;48.078;11.516;2023-05-20T07:31:41;13.60;99.90
3818;DHT22;1924;48.078;11.516;2023-05-20T07:34:08;13.60;99.90
3818;DHT22;1924;48.078;11.516;2023-05-20T07:36:35;13.60;99.90
3818;DHT22;1924;48.078;11.516;2023-05-20T07:39:02;13.70;99.90
3818;DHT22;1924;48.078;11.516;2023-05-20T07:41:29;13.70;99.90
3818;DHT22;1924;48.078;11.516;2023-05-20T07:43:57;13.70;99.90
3818;DHT22;1924;48.078;11.516;2023-05-20T07:46:24;13.80;99.90
3818;DHT22;1924;48.078;11.516;2023-05-20T07:48:51;13.90;99.90
3818;DHT22;1924;48.078;11.516;2023-05-20T07:51:19;14.10;99.90
3818;DHT22;1924;48.078;11.516;2023-05-20T07:53:45;14.40;99.90
3818;DHT22;1924;48.078;11.516;2023-05-20T07:56:12;14.30;99.90
3818;DHT22;1924;48.078;11.516;2023-05-20T07:58:40;14.40;99.90
3818;DHT22;1924;48.078;11.516;2023-05-20T08:04:30;14.70;99.90
3818;DHT22;1924;48.078;11.516;2023-05-20T08:06:57;15.10;99.90
3818;DHT22;1924;48.078;11.516;2023-05-20T08:12:46;15.60;99.90
3818;DHT22;1924;48.078;11.516;2023-05-20T08:15:13;15.70;99.90
3818;DHT22;1924;48.078;11.516;2023-05-20T08:17:40;15.70;99.90
3818;DHT22;1924;48.078;11.516;2023-05-20T08:20:09;15.80;99.90
3818;DHT22;1924;48.078;11.516;2023-05-20T08:22:37;15.70;99.90
3818;DHT22;1924;48.078;11.516;2023-05-20T08:25:07;15.50;99.90
3818;DHT22;1924;48.078;11.516;2023-05-20T08:27:34;15.50;99.90
3818;DHT22;1924;48.078;11.516;2023-05-20T08:30:01;15.60;99.90
3818;DHT22;1924;48.078;11.516;2023-05-20T08:32:28;15.80;99.90
3818;DHT22;1924;48.078;11.516;2023-05-20T08:34:55;16.10;99.90
3818;DHT22;1924;48.078;11.516;2023-05-20T08:37:23;16.10;99.90
3818;DHT22;1924;48.078;11.516;2023-05-20T08:40:02;15.70;99.90
3818;DHT22;1924;48.078;11.516;2023-05-20T08:49:13;15.60;99.90
3818;DHT22;1924;48.078;11.516;2023-05-20T08:51:40;15.70;99.90
3818;DHT22;1924;48.078;11.516;2023-05-20T08:54:10;15.80;99.90
3818;DHT22;1924;48.078;11.516;2023-05-20T08:56:39;15.80;99.90
3818;DHT22;1924;48.078;11.516;2023-05-20T08:59:07;15.90;99.90
3818;DHT22;1924;48.078;11.516;2023-05-20T09:01:40;15.80;99.90
3818;DHT22;1924;48.078;11.516;2023-05-20T09:04:07;15.90;99.90
3818;DHT22;1924;48.078;11.516;2023-05-20T09:06:41;16.20;99.90
3818;DHT22;1924;48.078;11.516;2023-05-20T09:09:11;16.50;99.90
3818;DHT22;1924;48.078;11.516;2023-05-20T09:11:38;16.40;99.90
3818;DHT22;1924;48.078;11.516;2023-05-20T09:14:06;16.50;99.90
3818;DHT22;1924;48.078;11.516;2023-05-20T09:16:33;16.50;99.90
3818;DHT22;1924;48.078;11.516;2023-05-20T09:19:00;16.60;99.90
3818;DHT22;1924;48.078;11.516;2023-05-20T09:21:26;16.70;99.90
3818;DHT22;1924;48.078;11.516;2023-05-20T09:23:53;16.50;99.90
3818;DHT22;1924;48.078;11.516;2023-05-20T09:26:25;16.40;99.90
3818;DHT22;1924;48.078;11.516;2023-05-20T09:28:54;16.60;99.90
3818;DHT22;1924;48.078;11.516;2023-05-20T09:31:25;16.60;99.90
3818;DHT22;1924;48.078;11.516;2023-05-20T09:33:52;16.60;99.90
3818;DHT22;1924;48.078;11.516;2023-05-20T09:36:19;16.70;99.90
3818;DHT22;1924;48.078;11.516;2023-05-20T09:38:51;16.70;99.90
3818;DHT22;1924;48.078;11.516;2023-05-20T09:41:19;16.90;99.90
3818;DHT22;1924;48.078;11.516;2023-05-20T09:43:50;17.00;99.90
3818;DHT22;1924;48.078;11.516;2023-05-20T09:46:18;16.90;99.90
3818;DHT22;1924;48.078;11.516;2023-05-20T09:48:45;16.90;99.90
3818;DHT22;1924;48.078;11.516;2023-05-20T09:51:12;17.00;99.90
3818;DHT22;1924;48.078;11.516;2023-05-20T09:53:40;17.10;99.90
3818;DHT22;1924;48.078;11.516;2023-05-20T09:56:07;17.20;99.90
3818;DHT22;1924;48.078;11.516;2023-05-20T09:58:35;17.20;99.90
3818;DHT22;1924;48.078;11.516;2023-05-20T10:01:03;17.30;99.90
3818;DHT22;1924;48.078;11.516;2023-05-20T10:03:31;17.40;99.90
3818;DHT22;1924;48.078;11.516;2023-05-20T10:09:00;17.30;99.90
3818;DHT22;1924;48.078;11.516;2023-05-20T10:11:37;17.30;99.90
3818;DHT22;1924;48.078;11.516;2023-05-20T10:14:30;17.20;99.90
3818;DHT22;1924;48.078;11.516;2023-05-20T10:17:06;17.10;99.90
3818;DHT22;1924;48.078;11.516;2023-05-20T10:19:36;17.30;99.90
3818;DHT22;1924;48.078;11.516;2023-05-20T10:22:05;17.40;99.90
3818;DHT22;1924;48.078;11.516;2023-05-20T10:24:34;17.40;99.90
3818;DHT22;1924;48.078;11.516;2023-05-20T10:27:03;17.50;99.90
3818;DHT22;1924;48.078;11.516;2023-05-20T10:29:42;17.60;99.90
3818;DHT22;1924;48.078;11.516;2023-05-20T10:32:11;18.00;99.90
3818;DHT22;1924;48.078;11.516;2023-05-20T10:34:45;18.30;99.90
3818;DHT22;1924;48.078;11.516;2023-05-20T10:37:23;18.50;99.90
3818;DHT22;1924;48.078;11.516;2023-05-20T10:39:50;18.90;99.90
3818;DHT22;1924;48.078;11.516;2023-05-20T10:42:27;19.00;99.90
3818;DHT22;1924;48.078;11.516;2023-05-20T10:44:53;19.30;99.90
3818;DHT22;1924;48.078;11.516;2023-05-20T10:47:21;19.40;99.90
3818;DHT22;1924;48.078;11.516;2023-05-20T10:49:48;19.40;99.90
3818;DHT22;1924;48.078;11.516;2023-05-20T10:52:16;19.30;99.90
3818;DHT22;1924;48.078;11.516;2023-05-20T10:54:43;19.20;99.90
3818;DHT22;1924;48.078;11.516;2023-05-20T10:57:10;19.00;99.10
3818;DHT22;1924;48.078;11.516;2023-05-20T10:59:37;19.10;98.70
3818;DHT22;1924;48.078;11.516;2023-05-20T11:02:04;19.20;98.70
3818;DHT22;1924;48.078;11.516;2023-05-20T11:04:32;19.30;98.00
3818;DHT22;1924;48.078;11.516;2023-05-20T11:06:59;19.30;98.20
3818;DHT22;1924;48.078;11.516;2023-05-20T11:09:25;19.20;98.10
3818;DHT22;1924;48.078;11.516;2023-05-20T11:11:53;19.20;98.50
3818;DHT22;1924;48.078;11.516;2023-05-20T11:14:20;19.40;98.00
3818;DHT22;1924;48.078;11.516;2023-05-20T11:16:51;19.60;98.20
3818;DHT22;1924;48.078;11.516;2023-05-20T11:19:18;19.90;97.70
3818;DHT22;1924;48.078;11.516;2023-05-20T11:21:47;20.20;96.70
3818;DHT22;1924;48.078;11.516;2023-05-20T11:24:20;20.50;95.80
3818;DHT22;1924;48.078;11.516;2023-05-20T11:26:47;20.70;95.60
3818;DHT22;1924;48.078;11.516;2023-05-20T11:29:14;20.90;96.40
3818;DHT22;1924;48.078;11.516;2023-05-20T11:31:41;21.00;95.50
3818;DHT22;1924;48.078;11.516;2023-05-20T11:34:08;21.00;95.90
3818;DHT22;1924;48.078;11.516;2023-05-20T11:40:04;20.90;95.90
3818;DHT22;1924;48.078;11.516;2023-05-20T11:42:34;21.00;94.00
3818;DHT22;1924;48.078;11.516;2023-05-20T11:45:00;21.00;93.80
3818;DHT22;1924;48.078;11.516;2023-05-20T11:47:27;21.00;93.30
3818;DHT22;1924;48.078;11.516;2023-05-20T11:49:55;21.20;94.60
3818;DHT22;1924;48.078;11.516;2023-05-20T11:52:22;21.10;93.20
3818;DHT22;1924;48.078;11.516;2023-05-20T11:54:51;21.50;94.00
3818;DHT22;1924;48.078;11.516;2023-05-20T11:57:19;21.80;94.10
3818;DHT22;1924;48.078;11.516;2023-05-20T11:59:46;21.70;92.00
3818;DHT22;1924;48.078;11.516;2023-05-20T12:02:13;21.60;91.50
3818;DHT22;1924;48.078;11.516;2023-05-20T12:04:39;21.50;90.80
3818;DHT22;1924;48.078;11.516;2023-05-20T12:07:06;21.60;91.20
3818;DHT22;1924;48.078;11.516;2023-05-20T12:09:34;21.70;91.40
3818;DHT22;1924;48.078;11.516;2023-05-20T12:12:01;21.70;91.00
3818;DHT22;1924;48.078;11.516;2023-05-20T12:15:00;21.80;90.30
3818;DHT22;1924;48.078;11.516;2023-05-20T12:17:27;21.60;90.00
3818;DHT22;1924;48.078;11.516;2023-05-20T12:19:54;21.50;90.50
3818;DHT22;1924;48.078;11.516;2023-05-20T12:22:20;21.60;90.70
3818;DHT22;1924;48.078;11.516;2023-05-20T12:24:48;21.50;89.90
3818;DHT22;1924;48.078;11.516;2023-05-20T12:27:15;21.60;90.50
3818;DHT22;1924;48.078;11.516;2023-05-20T12:29:42;21.70;89.60
3818;DHT22;1924;48.078;11.516;2023-05-20T12:32:10;21.70;90.10
3818;DHT22;1924;48.078;11.516;2023-05-20T12:34:37;21.60;89.10
3818;DHT22;1924;48.078;11.516;2023-05-20T12:37:04;21.50;90.70
3818;DHT22;1924;48.078;11.516;2023-05-20T12:39:30;21.50;90.50
3818;DHT22;1924;48.078;11.516;2023-05-20T12:41:57;21.60;90.60
3818;DHT22;1924;48.078;11.516;2023-05-20T12:44:24;21.50;89.90
3818;DHT22;1924;48.078;11.516;2023-05-20T12:46:50;21.60;87.80
3818;DHT22;1924;48.078;11.516;2023-05-20T12:49:18;21.60;88.40
3818;DHT22;1924;48.078;11.516;2023-05-20T12:51:45;21.80;89.20
3818;DHT22;1924;48.078;11.516;2023-05-20T12:54:12;21.60;85.50
3818;DHT22;1924;48.078;11.516;2023-05-20T12:56:38;21.50;87.20
3818;DHT22;1924;48.078;11.516;2023-05-20T12:59:05;21.50;85.00
3818;DHT22;1924;48.078;11.516;2023-05-20T13:01:32;21.70;87.90
3818;DHT22;1924;48.078;11.516;2023-05-20T13:03:59;21.90;87.90
3818;DHT22;1924;48.078;11.516;2023-05-20T13:06:27;21.90;84.00
3818;DHT22;1924;48.078;11.516;2023-05-20T13:08:53;22.00;82.10
3818;DHT22;1924;48.078;11.516;2023-05-20T13:11:20;22.20;83.40
3818;DHT22;1924;48.078;11.516;2023-05-20T13:13:47;22.10;82.20
3818;DHT22;1924;48.078;11.516;2023-05-20T13:16:14;22.30;84.40
3818;DHT22;1924;48.078;11.516;2023-05-20T13:18:42;22.50;83.40
3818;DHT22;1924;48.078;11.516;2023-05-20T13:21:09;22.50;82.70
3818;DHT22;1924;48.078;11.516;2023-05-20T13:23:38;22.30;82.60
3818;DHT22;1924;48.078;11.516;2023-05-20T13:26:05;22.30;81.80
3818;DHT22;1924;48.078;11.516;2023-05-20T13:28:32;22.00;82.00
3818;DHT22;1924;48.078;11.516;2023-05-20T13:31:00;21.90;85.80
3818;DHT22;1924;48.078;11.516;2023-05-20T13:33:27;21.80;87.50
3818;DHT22;1924;48.078;11.516;2023-05-20T13:35:54;21.90;88.00
3818;DHT22;1924;48.078;11.516;2023-05-20T13:38:21;21.90;88.80
3818;DHT22;1924;48.078;11.516;2023-05-20T13:40:49;21.80;88.00
3818;DHT22;1924;48.078;11.516;2023-05-20T13:43:16;21.90;88.70
3818;DHT22;1924;48.078;11.516;2023-05-20T13:45:43;21.70;86.70
3818;DHT22;1924;48.078;11.516;2023-05-20T13:48:09;21.60;87.10
3818;DHT22;1924;48.078;11.516;2023-05-20T13:50:36;21.50;87.50
3818;DHT22;1924;48.078;11.516;2023-05-20T13:53:03;21.30;88.60
3818;DHT22;1924;48.078;11.516;2023-05-20T13:55:30;21.30;89.20
3818;DHT22;1924;48.078;11.516;2023-05-20T13:57:58;21.30;89.50
3818;DHT22;1924;48.078;11.516;2023-05-20T14:00:25;21.30;89.80
3818;DHT22;1924;48.078;11.516;2023-05-20T14:02:52;21.10;90.20
3818;DHT22;1924;48.078;11.516;2023-05-20T14:05:18;21.10;90.70
3818;DHT22;1924;48.078;11.516;2023-05-20T14:07:45;21.10;90.40
3818;DHT22;1924;48.078;11.516;2023-05-20T14:10:12;21.10;90.40
3818;DHT22;1924;48.078;11.516;2023-05-20T14:12:39;21.00;90.10
3818;DHT22;1924;48.078;11.516;2023-05-20T14:15:09;21.00;90.00
3818;DHT22;1924;48.078;11.516;2023-05-20T14:17:36;21.00;89.90
3818;DHT22;1924;48.078;11.516;2023-05-20T14:20:06;21.00;86.50
3818;DHT22;1924;48.078;11.516;2023-05-20T14:22:33;20.90;86.00
3818;DHT22;1924;48.078;11.516;2023-05-20T14:25:00;20.90;86.30
3818;DHT22;1924;48.078;11.516;2023-05-20T14:27:27;20.90;87.40
3818;DHT22;1924;48.078;11.516;2023-05-20T14:29:54;20.90;87.80
3818;DHT22;1924;48.078;11.516;2023-05-20T14:32:22;20.90;89.00
3818;DHT22;1924;48.078;11.516;2023-05-20T14:34:50;20.90;89.20
3818;DHT22;1924;48.078;11.516;2023-05-20T14:37:18;20.90;87.60
3818;DHT22;1924;48.078;11.516;2023-05-20T14:39:48;20.90;88.20
3818;DHT22;1924;48.078;11.516;2023-05-20T14:42:15;20.90;88.50
3818;DHT22;1924;48.078;11.516;2023-05-20T14:44:41;20.90;88.30
3818;DHT22;1924;48.078;11.516;2023-05-20T14:47:08;20.90;89.20
3818;DHT22;1924;48.078;11.516;2023-05-20T14:49:36;20.90;88.40
3818;DHT22;1924;48.078;11.516;2023-05-20T14:52:04;20.80;88.60
3818;DHT22;1924;48.078;11.516;2023-05-20T14:54:32;20.90;89.20
3818;DHT22;1924;48.078;11.516;2023-05-20T14:56:59;21.00;89.00
3818;DHT22;1924;48.078;11.516;2023-05-20T14:59:25;21.00;87.40
3818;DHT22;1924;48.078;11.516;2023-05-20T15:01:52;20.90;87.80
3818;DHT22;1924;48.078;11.516;2023-05-20T15:04:19;20.90;88.10
3818;DHT22;1924;48.078;11.516;2023-05-20T15:06:47;21.00;87.60
3818;DHT22;1924;48.078;11.516;2023-05-20T15:09:14;21.00;87.20
3818;DHT22;1924;48.078;11.516;2023-05-20T15:11:41;21.00;87.20
3818;DHT22;1924;48.078;11.516;2023-05-20T15:14:08;21.00;87.00
3818;DHT22;1924;48.078;11.516;2023-05-20T15:16:34;21.00;85.20
3818;DHT22;1924;48.078;11.516;2023-05-20T15:19:02;20.90;85.60
3818;DHT22;1924;48.078;11.516;2023-05-20T15:21:29;20.90;86.90
3818;DHT22;1924;48.078;11.516;2023-05-20T15:23:57;20.90;87.20
3818;DHT22;1924;48.078;11.516;2023-05-20T15:26:24;20.90;87.80
3818;DHT22;1924;48.078;11.516;2023-05-20T15:28:50;20.80;87.90
3818;DHT22;1924;48.078;11.516;2023-05-20T15:31:17;20.80;89.00
3818;DHT22;1924;48.078;11.516;2023-05-20T15:33:44;20.80;88.70
3818;DHT22;1924;48.078;11.516;2023-05-20T15:36:10;20.80;88.50
3818;DHT22;1924;48.078;11.516;2023-05-20T15:38:37;20.80;87.80
3818;DHT22;1924;48.078;11.516;2023-05-20T15:44:24;20.80;88.30
3818;DHT22;1924;48.078;11.516;2023-05-20T15:46:53;20.80;88.60
3818;DHT22;1924;48.078;11.516;2023-05-20T15:49:19;21.00;89.10
3818;DHT22;1924;48.078;11.516;2023-05-20T15:51:46;21.00;88.40
3818;DHT22;1924;48.078;11.516;2023-05-20T15:54:16;21.10;88.90
3818;DHT22;1924;48.078;11.516;2023-05-20T15:56:44;21.30;88.80
3818;DHT22;1924;48.078;11.516;2023-05-20T15:59:11;21.20;88.80
3818;DHT22;1924;48.078;11.516;2023-05-20T16:01:39;21.10;88.20
3818;DHT22;1924;48.078;11.516;2023-05-20T16:04:05;21.00;88.40
3818;DHT22;1924;48.078;11.516;2023-05-20T16:06:32;21.00;88.80
3818;DHT22;1924;48.078;11.516;2023-05-20T16:09:00;20.90;89.00
3818;DHT22;1924;48.078;11.516;2023-05-20T16:11:29;20.80;89.10
3818;DHT22;1924;48.078;11.516;2023-05-20T16:13:57;20.80;90.10
3818;DHT22;1924;48.078;11.516;2023-05-20T16:16:24;20.80;90.30
3818;DHT22;1924;48.078;11.516;2023-05-20T16:25:37;20.70;90.70
3818;DHT22;1924;48.078;11.516;2023-05-20T16:28:03;20.60;90.80
3818;DHT22;1924;48.078;11.516;2023-05-20T16:30:30;20.60;91.30
3818;DHT22;1924;48.078;11.516;2023-05-20T16:32:57;20.60;91.20
3818;DHT22;1924;48.078;11.516;2023-05-20T16:35:23;20.60;91.00
3818;DHT22;1924;48.078;11.516;2023-05-20T16:37:50;20.70;91.10
3818;DHT22;1924;48.078;11.516;2023-05-20T16:40:17;20.60;91.30
3818;DHT22;1924;48.078;11.516;2023-05-20T16:42:45;20.60;91.10
3818;DHT22;1924;48.078;11.516;2023-05-20T16:45:12;20.50;91.20
3818;DHT22;1924;48.078;11.516;2023-05-20T16:47:39;20.50;91.40
3818;DHT22;1924;48.078;11.516;2023-05-20T16:50:06;20.50;91.90
3818;DHT22;1924;48.078;11.516;2023-05-20T16:52:34;20.40;91.90
3818;DHT22;1924;48.078;11.516;2023-05-20T16:55:02;20.40;92.20
3818;DHT22;1924;48.078;11.516;2023-05-20T17:04:14;20.40;92.20
3818;DHT22;1924;48.078;11.516;2023-05-20T17:06:41;20.40;92.70
3818;DHT22;1924;48.078;11.516;2023-05-20T17:09:07;20.40;93.20
3818;DHT22;1924;48.078;11.516;2023-05-20T17:11:34;20.40;92.50
3818;DHT22;1924;48.078;11.516;2023-05-20T17:14:01;20.40;91.90
3818;DHT22;1924;48.078;11.516;2023-05-20T17:16:29;20.30;91.80
3818;DHT22;1924;48.078;11.516;2023-05-20T17:18:56;20.30;92.00
3818;DHT22;1924;48.078;11.516;2023-05-20T17:21:24;20.30;92.20
3818;DHT22;1924;48.078;11.516;2023-05-20T17:23:51;20.30;92.30
3818;DHT22;1924;48.078;11.516;2023-05-20T17:26:18;20.20;92.30
3818;DHT22;1924;48.078;11.516;2023-05-20T17:28:45;20.20;92.80
3818;DHT22;1924;48.078;11.516;2023-05-20T17:31:11;20.10;92.80
3818;DHT22;1924;48.078;11.516;2023-05-20T17:33:38;20.10;92.90
3818;DHT22;1924;48.078;11.516;2023-05-20T17:36:05;20.00;93.20
3818;DHT22;1924;48.078;11.516;2023-05-20T17:38:34;20.00;93.40
3818;DHT22;1924;48.078;11.516;2023-05-20T17:41:00;19.90;93.30
3818;DHT22;1924;48.078;11.516;2023-05-20T17:43:27;19.80;93.50
3818;DHT22;1924;48.078;11.516;2023-05-20T17:49:19;19.80;93.90
3818;DHT22;1924;48.078;11.516;2023-05-20T17:51:46;19.80;93.90
3818;DHT22;1924;48.078;11.516;2023-05-20T17:54:14;19.70;94.00
3818;DHT22;1924;48.078;11.516;2023-05-20T17:56:41;19.60;94.10
3818;DHT22;1924;48.078;11.516;2023-05-20T17:59:09;19.60;94.50
3818;DHT22;1924;48.078;11.516;2023-05-20T18:01:36;19.50;94.30
3818;DHT22;1924;48.078;11.516;2023-05-20T18:04:03;19.50;94.40
3818;DHT22;1924;48.078;11.516;2023-05-20T18:06:30;19.50;94.60
3818;DHT22;1924;48.078;11.516;2023-05-20T18:09:02;19.50;94.60
3818;DHT22;1924;48.078;11.516;2023-05-20T18:11:33;19.40;94.80
3818;DHT22;1924;48.078;11.516;2023-05-20T18:14:00;19.30;94.70
3818;DHT22;1924;48.078;11.516;2023-05-20T18:16:28;19.30;94.90
3818;DHT22;1924;48.078;11.516;2023-05-20T18:18:56;19.30;95.00
3818;DHT22;1924;48.078;11.516;2023-05-20T18:21:23;19.20;95.10
3818;DHT22;1924;48.078;11.516;2023-05-20T18:23:50;19.20;95.10
3818;DHT22;1924;48.078;11.516;2023-05-20T18:26:17;19.20;95.10
3818;DHT22;1924;48.078;11.516;2023-05-20T18:28:46;19.10;95.20
3818;DHT22;1924;48.078;11.516;2023-05-20T18:31:14;19.10;95.60
3818;DHT22;1924;48.078;11.516;2023-05-20T18:33:40;19.00;95.40
3818;DHT22;1924;48.078;11.516;2023-05-20T18:36:07;18.90;95.50
3818;DHT22;1924;48.078;11.516;2023-05-20T18:38:34;18.90;95.70
3818;DHT22;1924;48.078;11.516;2023-05-20T18:41:01;18.90;95.90
3818;DHT22;1924;48.078;11.516;2023-05-20T18:43:27;18.80;96.00
3818;DHT22;1924;48.078;11.516;2023-05-20T18:45:56;18.70;96.20
3818;DHT22;1924;48.078;11.516;2023-05-20T18:48:22;18.70;96.50
3818;DHT22;1924;48.078;11.516;2023-05-20T18:50:49;18.60;96.70
3818;DHT22;1924;48.078;11.516;2023-05-20T18:53:16;18.60;96.80
3818;DHT22;1924;48.078;11.516;2023-05-20T18:55:44;18.60;96.90
3818;DHT22;1924;48.078;11.516;2023-05-20T18:58:12;18.50;97.00
3818;DHT22;1924;48.078;11.516;2023-05-20T19:00:39;18.50;97.20
3818;DHT22;1924;48.078;11.516;2023-05-20T19:03:13;18.40;97.40
3818;DHT22;1924;48.078;11.516;2023-05-20T19:05:40;18.40;97.50
3818;DHT22;1924;48.078;11.516;2023-05-20T19:08:06;18.40;97.70
3818;DHT22;1924;48.078;11.516;2023-05-20T19:10:33;18.30;97.90
3818;DHT22;1924;48.078;11.516;2023-05-20T19:13:00;18.30;98.10
3818;DHT22;1924;48.078;11.516;2023-05-20T19:15:27;18.20;98.20
3818;DHT22;1924;48.078;11.516;2023-05-20T19:17:55;18.20;98.40
3818;DHT22;1924;48.078;11.516;2023-05-20T19:20:23;18.10;98.50
3818;DHT22;1924;48.078;11.516;2023-05-20T19:22:50;18.20;98.70
3818;DHT22;1924;48.078;11.516;2023-05-20T19:25:17;18.10;99.00
3818;DHT22;1924;48.078;11.516;2023-05-20T19:27:44;18.00;99.40
3818;DHT22;1924;48.078;11.516;2023-05-20T19:30:11;18.00;99.20
3818;DHT22;1924;48.078;11.516;2023-05-20T19:32:38;17.90;99.50
3818;DHT22;1924;48.078;11.516;2023-05-20T19:35:08;17.90;99.60
3818;DHT22;1924;48.078;11.516;2023-05-20T19:37:36;17.90;99.70
3818;DHT22;1924;48.078;11.516;2023-05-20T19:40:04;17.90;99.90
3818;DHT22;1924;48.078;11.516;2023-05-20T19:42:32;17.80;99.90
3818;DHT22;1924;48.078;11.516;2023-05-20T19:44:59;17.80;99.90
3818;DHT22;1924;48.078;11.516;2023-05-20T19:47:25;17.80;99.90
3818;DHT22;1924;48.078;11.516;2023-05-20T19:49:52;17.80;99.90
3818;DHT22;1924;48.078;11.516;2023-05-20T19:52:19;17.70;99.90
3818;DHT22;1924;48.078;11.516;2023-05-20T19:54:47;17.70;99.90
3818;DHT22;1924;48.078;11.516;2023-05-20T19:57:14;17.70;99.90
3818;DHT22;1924;48.078;11.516;2023-05-20T19:59:41;17.60;99.90
3818;DHT22;1924;48.078;11.516;2023-05-20T20:02:07;17.50;99.90
3818;DHT22;1924;48.078;11.516;2023-05-20T20:04:34;17.40;99.90
3818;DHT22;1924;48.078;11.516;2023-05-20T20:07:01;17.40;99.90
3818;DHT22;1924;48.078;11.516;2023-05-20T20:09:28;17.40;99.90
3818;DHT22;1924;48.078;11.516;2023-05-20T20:11:56;17.40;99.90
3818;DHT22;1924;48.078;11.516;2023-05-20T20:14:23;17.40;99.90
3818;DHT22;1924;48.078;11.516;2023-05-20T20:16:50;17.40;99.90
3818;DHT22;1924;48.078;11.516;2023-05-20T20:19:17;17.30;99.90
3818;DHT22;1924;48.078;11.516;2023-05-20T20:21:47;17.30;99.90
3818;DHT22;1924;48.078;11.516;2023-05-20T20:24:14;17.30;99.90
3818;DHT22;1924;48.078;11.516;2023-05-20T20:26:41;17.20;99.90